sensor_id;sensor_type;location;lat;lon;timestamp;P1;durP1;ratioP1;P2;durP2;ratioP2
75218;SDS011;63801;49.414;19.474;2023-07-29T00:00:15;11.77;;;7.55;;
75218;SDS011;63801;49.414;19.474;2023-07-29T00:02:16;12.70;;;8.10;;
75218;SDS011;63801;49.414;19.474;2023-07-29T00:04:16;14.55;;;8.57;;
75218;SDS011;63801;49.414;19.474;2023-07-29T00:06:16;12.75;;;8.10;;
75218;SDS011;63801;49.414;19.474;2023-07-29T00:08:17;14.15;;;7.25;;
75218;SDS011;63801;49.414;19.474;2023-07-29T00:10:17;11.63;;;7.93;;
75218;SDS011;63801;49.414;19.474;2023-07-29T00:12:17;11.30;;;7.18;;
75218;SDS011;63801;49.414;19.474;2023-07-29T00:14:18;11.40;;;6.95;;
75218;SDS011;63801;49.414;19.474;2023-07-29T00:16:18;14.50;;;6.70;;
75218;SDS011;63801;49.414;19.474;2023-07-29T00:18:22;11.85;;;6.78;;
75218;SDS011;63801;49.414;19.474;2023-07-29T00:20:23;13.70;;;7.78;;
75218;SDS011;63801;49.414;19.474;2023-07-29T00:22:23;12.32;;;7.57;;
75218;SDS011;63801;49.414;19.474;2023-07-29T00:24:24;12.55;;;7.68;;
75218;SDS011;63801;49.414;19.474;2023-07-29T00:26:24;10.82;;;6.82;;
75218;SDS011;63801;49.414;19.474;2023-07-29T00:28:26;11.93;;;7.00;;
75218;SDS011;63801;49.414;19.474;2023-07-29T00:30:26;11.98;;;7.15;;
75218;SDS011;63801;49.414;19.474;2023-07-29T00:32:29;12.02;;;6.78;;
75218;SDS011;63801;49.414;19.474;2023-07-29T00:34:30;11.13;;;5.82;;
75218;SDS011;63801;49.414;19.474;2023-07-29T00:36:30;9.55;;;5.72;;
75218;SDS011;63801;49.414;19.474;2023-07-29T00:38:31;11.15;;;6.72;;
75218;SDS011;63801;49.414;19.474;2023-07-29T00:40:31;10.45;;;6.28;;
75218;SDS011;63801;49.414;19.474;2023-07-29T00:42:36;10.85;;;6.40;;
75218;SDS011;63801;49.414;19.474;2023-07-29T00:44:36;12.73;;;6.75;;
75218;SDS011;63801;49.414;19.474;2023-07-29T00:46:36;9.65;;;6.13;;
75218;SDS011;63801;49.414;19.474;2023-07-29T00:48:38;9.43;;;5.63;;
75218;SDS011;63801;49.414;19.474;2023-07-29T00:50:38;10.25;;;5.07;;
75218;SDS011;63801;49.414;19.474;2023-07-29T00:52:39;9.20;;;5.00;;
75218;SDS011;63801;49.414;19.474;2023-07-29T00:54:39;9.63;;;5.65;;
75218;SDS011;63801;49.414;19.474;2023-07-29T00:56:40;10.05;;;5.78;;
75218;SDS011;63801;49.414;19.474;2023-07-29T00:58:40;9.68;;;5.53;;
75218;SDS011;63801;49.414;19.474;2023-07-29T01:00:41;9.52;;;5.10;;
75218;SDS011;63801;49.414;19.474;2023-07-29T01:02:44;14.55;;;4.88;;
75218;SDS011;63801;49.414;19.474;2023-07-29T01:04:45;10.80;;;5.63;;
75218;SDS011;63801;49.414;19.474;2023-07-29T01:07:03;10.38;;;6.00;;
75218;SDS011;63801;49.414;19.474;2023-07-29T01:09:15;9.43;;;5.10;;
75218;SDS011;63801;49.414;19.474;2023-07-29T01:13:44;10.13;;;6.32;;
75218;SDS011;63801;49.414;19.474;2023-07-29T01:15:52;9.82;;;4.97;;
75218;SDS011;63801;49.414;19.474;2023-07-29T01:17:56;8.50;;;5.13;;
75218;SDS011;63801;49.414;19.474;2023-07-29T01:20:07;8.88;;;5.00;;
75218;SDS011;63801;49.414;19.474;2023-07-29T01:22:09;8.60;;;4.80;;
75218;SDS011;63801;49.414;19.474;2023-07-29T01:24:10;8.23;;;5.13;;
75218;SDS011;63801;49.414;19.474;2023-07-29T01:26:11;7.35;;;4.57;;
75218;SDS011;63801;49.414;19.474;2023-07-29T01:28:11;9.73;;;5.10;;
75218;SDS011;63801;49.414;19.474;2023-07-29T01:30:11;8.50;;;5.15;;
75218;SDS011;63801;49.414;19.474;2023-07-29T01:32:17;10.30;;;5.45;;
75218;SDS011;63801;49.414;19.474;2023-07-29T01:34:48;8.15;;;4.45;;
75218;SDS011;63801;49.414;19.474;2023-07-29T01:36:57;9.73;;;4.85;;
75218;SDS011;63801;49.414;19.474;2023-07-29T01:38:59;7.75;;;5.15;;
75218;SDS011;63801;49.414;19.474;2023-07-29T01:41:02;9.95;;;4.80;;
75218;SDS011;63801;49.414;19.474;2023-07-29T01:43:03;10.38;;;6.15;;
75218;SDS011;63801;49.414;19.474;2023-07-29T01:45:04;9.20;;;5.10;;
75218;SDS011;63801;49.414;19.474;2023-07-29T01:47:05;7.63;;;4.88;;
75218;SDS011;63801;49.414;19.474;2023-07-29T01:49:05;9.05;;;5.00;;
75218;SDS011;63801;49.414;19.474;2023-07-29T01:51:06;8.18;;;4.57;;
75218;SDS011;63801;49.414;19.474;2023-07-29T01:53:07;10.10;;;4.57;;
75218;SDS011;63801;49.414;19.474;2023-07-29T01:55:07;8.60;;;4.20;;
75218;SDS011;63801;49.414;19.474;2023-07-29T01:57:07;8.57;;;4.80;;
75218;SDS011;63801;49.414;19.474;2023-07-29T01:59:08;7.68;;;4.40;;
75218;SDS011;63801;49.414;19.474;2023-07-29T02:01:08;9.77;;;4.45;;
75218;SDS011;63801;49.414;19.474;2023-07-29T02:03:09;6.72;;;4.07;;
75218;SDS011;63801;49.414;19.474;2023-07-29T02:05:09;6.82;;;4.43;;
75218;SDS011;63801;49.414;19.474;2023-07-29T02:07:09;6.50;;;4.15;;
75218;SDS011;63801;49.414;19.474;2023-07-29T02:09:10;6.05;;;3.85;;
75218;SDS011;63801;49.414;19.474;2023-07-29T02:11:10;7.10;;;4.00;;
75218;SDS011;63801;49.414;19.474;2023-07-29T02:13:11;9.73;;;4.38;;
75218;SDS011;63801;49.414;19.474;2023-07-29T02:15:11;7.88;;;4.35;;
75218;SDS011;63801;49.414;19.474;2023-07-29T02:17:12;8.52;;;4.05;;
75218;SDS011;63801;49.414;19.474;2023-07-29T02:19:12;7.35;;;4.43;;
75218;SDS011;63801;49.414;19.474;2023-07-29T02:21:12;6.15;;;4.15;;
75218;SDS011;63801;49.414;19.474;2023-07-29T02:23:12;6.72;;;4.22;;
75218;SDS011;63801;49.414;19.474;2023-07-29T02:25:13;7.25;;;4.05;;
75218;SDS011;63801;49.414;19.474;2023-07-29T02:27:13;7.97;;;4.18;;
75218;SDS011;63801;49.414;19.474;2023-07-29T02:29:13;6.68;;;4.22;;
75218;SDS011;63801;49.414;19.474;2023-07-29T02:31:21;7.38;;;3.92;;
75218;SDS011;63801;49.414;19.474;2023-07-29T02:33:22;6.95;;;4.05;;
75218;SDS011;63801;49.414;19.474;2023-07-29T02:35:23;7.57;;;4.55;;
75218;SDS011;63801;49.414;19.474;2023-07-29T02:37:24;7.82;;;4.53;;
75218;SDS011;63801;49.414;19.474;2023-07-29T02:39:24;7.93;;;4.30;;
75218;SDS011;63801;49.414;19.474;2023-07-29T02:41:24;7.25;;;4.28;;
75218;SDS011;63801;49.414;19.474;2023-07-29T02:43:25;12.52;;;4.63;;
75218;SDS011;63801;49.414;19.474;2023-07-29T02:45:25;8.85;;;4.50;;
75218;SDS011;63801;49.414;19.474;2023-07-29T02:47:25;7.43;;;4.35;;
75218;SDS011;63801;49.414;19.474;2023-07-29T02:49:26;7.72;;;4.20;;
75218;SDS011;63801;49.414;19.474;2023-07-29T02:51:26;7.78;;;4.45;;
75218;SDS011;63801;49.414;19.474;2023-07-29T02:53:26;7.90;;;4.35;;
75218;SDS011;63801;49.414;19.474;2023-07-29T02:55:27;10.00;;;4.60;;
75218;SDS011;63801;49.414;19.474;2023-07-29T02:57:27;7.05;;;4.40;;
75218;SDS011;63801;49.414;19.474;2023-07-29T02:59:27;8.48;;;4.53;;
75218;SDS011;63801;49.414;19.474;2023-07-29T03:01:28;11.48;;;4.63;;
75218;SDS011;63801;49.414;19.474;2023-07-29T03:03:28;8.35;;;4.28;;
75218;SDS011;63801;49.414;19.474;2023-07-29T03:05:29;8.23;;;4.70;;
75218;SDS011;63801;49.414;19.474;2023-07-29T03:07:29;10.80;;;4.68;;
75218;SDS011;63801;49.414;19.474;2023-07-29T03:09:30;7.63;;;4.40;;
75218;SDS011;63801;49.414;19.474;2023-07-29T03:11:30;7.63;;;4.40;;
75218;SDS011;63801;49.414;19.474;2023-07-29T03:13:31;7.72;;;4.68;;
75218;SDS011;63801;49.414;19.474;2023-07-29T03:15:31;7.97;;;4.03;;
75218;SDS011;63801;49.414;19.474;2023-07-29T03:17:34;8.68;;;4.05;;
75218;SDS011;63801;49.414;19.474;2023-07-29T03:19:34;7.25;;;4.50;;
75218;SDS011;63801;49.414;19.474;2023-07-29T03:21:35;6.68;;;4.30;;
75218;SDS011;63801;49.414;19.474;2023-07-29T03:23:35;6.55;;;4.28;;
75218;SDS011;63801;49.414;19.474;2023-07-29T03:25:36;7.25;;;4.05;;
75218;SDS011;63801;49.414;19.474;2023-07-29T03:27:37;6.30;;;4.40;;
75218;SDS011;63801;49.414;19.474;2023-07-29T03:29:37;9.40;;;4.70;;
75218;SDS011;63801;49.414;19.474;2023-07-29T03:31:37;8.15;;;4.20;;
75218;SDS011;63801;49.414;19.474;2023-07-29T03:33:38;7.40;;;4.13;;
75218;SDS011;63801;49.414;19.474;2023-07-29T03:35:38;6.28;;;3.85;;
75218;SDS011;63801;49.414;19.474;2023-07-29T03:37:39;7.55;;;4.43;;
75218;SDS011;63801;49.414;19.474;2023-07-29T03:39:39;5.97;;;3.97;;
75218;SDS011;63801;49.414;19.474;2023-07-29T03:41:40;8.35;;;4.22;;
75218;SDS011;63801;49.414;19.474;2023-07-29T03:43:40;6.65;;;3.97;;
75218;SDS011;63801;49.414;19.474;2023-07-29T03:45:40;6.13;;;4.05;;
75218;SDS011;63801;49.414;19.474;2023-07-29T03:47:41;8.65;;;4.20;;
75218;SDS011;63801;49.414;19.474;2023-07-29T03:49:41;9.88;;;3.88;;
75218;SDS011;63801;49.414;19.474;2023-07-29T03:51:41;6.78;;;3.75;;
75218;SDS011;63801;49.414;19.474;2023-07-29T03:53:42;6.95;;;3.95;;
75218;SDS011;63801;49.414;19.474;2023-07-29T03:55:42;7.93;;;3.75;;
75218;SDS011;63801;49.414;19.474;2023-07-29T03:57:43;8.73;;;3.83;;
75218;SDS011;63801;49.414;19.474;2023-07-29T03:59:43;5.18;;;3.40;;
75218;SDS011;63801;49.414;19.474;2023-07-29T04:01:43;7.63;;;3.53;;
75218;SDS011;63801;49.414;19.474;2023-07-29T04:03:47;6.97;;;3.70;;
75218;SDS011;63801;49.414;19.474;2023-07-29T04:05:47;7.20;;;4.22;;
75218;SDS011;63801;49.414;19.474;2023-07-29T04:07:48;5.47;;;3.42;;
75218;SDS011;63801;49.414;19.474;2023-07-29T04:09:48;5.75;;;3.90;;
75218;SDS011;63801;49.414;19.474;2023-07-29T04:11:49;10.38;;;4.18;;
75218;SDS011;63801;49.414;19.474;2023-07-29T04:13:49;5.55;;;3.80;;
75218;SDS011;63801;49.414;19.474;2023-07-29T04:15:49;6.53;;;3.85;;
75218;SDS011;63801;49.414;19.474;2023-07-29T04:17:50;6.70;;;4.03;;
75218;SDS011;63801;49.414;19.474;2023-07-29T04:19:50;10.35;;;4.03;;
75218;SDS011;63801;49.414;19.474;2023-07-29T04:21:51;8.13;;;4.40;;
75218;SDS011;63801;49.414;19.474;2023-07-29T04:23:51;7.43;;;4.47;;
75218;SDS011;63801;49.414;19.474;2023-07-29T04:25:51;9.00;;;4.47;;
75218;SDS011;63801;49.414;19.474;2023-07-29T04:27:52;7.47;;;4.07;;
75218;SDS011;63801;49.414;19.474;2023-07-29T04:29:52;9.23;;;4.07;;
75218;SDS011;63801;49.414;19.474;2023-07-29T04:31:52;7.35;;;4.20;;
75218;SDS011;63801;49.414;19.474;2023-07-29T04:33:53;8.10;;;4.05;;
75218;SDS011;63801;49.414;19.474;2023-07-29T04:35:53;6.57;;;4.43;;
75218;SDS011;63801;49.414;19.474;2023-07-29T04:37:53;11.80;;;6.07;;
75218;SDS011;63801;49.414;19.474;2023-07-29T04:39:54;13.00;;;6.07;;
75218;SDS011;63801;49.414;19.474;2023-07-29T04:41:54;12.38;;;6.15;;
75218;SDS011;63801;49.414;19.474;2023-07-29T04:43:54;11.23;;;6.30;;
75218;SDS011;63801;49.414;19.474;2023-07-29T04:45:55;13.15;;;6.80;;
75218;SDS011;63801;49.414;19.474;2023-07-29T04:47:55;10.25;;;6.47;;
75218;SDS011;63801;49.414;19.474;2023-07-29T04:49:56;11.15;;;6.00;;
75218;SDS011;63801;49.414;19.474;2023-07-29T04:51:56;11.18;;;5.40;;
75218;SDS011;63801;49.414;19.474;2023-07-29T04:53:57;16.50;;;5.90;;
75218;SDS011;63801;49.414;19.474;2023-07-29T04:55:58;8.05;;;4.75;;
75218;SDS011;63801;49.414;19.474;2023-07-29T04:57:59;7.45;;;4.80;;
75218;SDS011;63801;49.414;19.474;2023-07-29T05:00:00;8.45;;;5.07;;
75218;SDS011;63801;49.414;19.474;2023-07-29T05:02:00;9.60;;;4.90;;
75218;SDS011;63801;49.414;19.474;2023-07-29T05:04:01;9.13;;;4.68;;
75218;SDS011;63801;49.414;19.474;2023-07-29T05:06:01;9.32;;;3.90;;
75218;SDS011;63801;49.414;19.474;2023-07-29T05:08:02;8.50;;;4.32;;
75218;SDS011;63801;49.414;19.474;2023-07-29T05:10:02;7.28;;;4.22;;
75218;SDS011;63801;49.414;19.474;2023-07-29T05:12:03;6.68;;;4.10;;
75218;SDS011;63801;49.414;19.474;2023-07-29T05:14:04;7.25;;;3.75;;
75218;SDS011;63801;49.414;19.474;2023-07-29T05:16:06;7.28;;;3.85;;
75218;SDS011;63801;49.414;19.474;2023-07-29T05:18:06;9.07;;;3.78;;
75218;SDS011;63801;49.414;19.474;2023-07-29T05:20:06;6.60;;;3.60;;
75218;SDS011;63801;49.414;19.474;2023-07-29T05:22:08;6.00;;;3.67;;
75218;SDS011;63801;49.414;19.474;2023-07-29T05:24:10;7.95;;;4.20;;
75218;SDS011;63801;49.414;19.474;2023-07-29T05:26:10;7.60;;;3.83;;
75218;SDS011;63801;49.414;19.474;2023-07-29T05:28:10;8.45;;;4.40;;
75218;SDS011;63801;49.414;19.474;2023-07-29T05:30:11;8.88;;;3.92;;
75218;SDS011;63801;49.414;19.474;2023-07-29T05:32:11;8.93;;;4.28;;
75218;SDS011;63801;49.414;19.474;2023-07-29T05:34:11;5.68;;;3.75;;
75218;SDS011;63801;49.414;19.474;2023-07-29T05:36:12;7.53;;;3.65;;
75218;SDS011;63801;49.414;19.474;2023-07-29T05:38:12;6.65;;;3.60;;
75218;SDS011;63801;49.414;19.474;2023-07-29T05:40:12;6.68;;;3.40;;
75218;SDS011;63801;49.414;19.474;2023-07-29T05:42:13;5.43;;;3.35;;
75218;SDS011;63801;49.414;19.474;2023-07-29T05:44:13;8.13;;;3.33;;
75218;SDS011;63801;49.414;19.474;2023-07-29T05:46:13;6.43;;;3.13;;
75218;SDS011;63801;49.414;19.474;2023-07-29T05:48:13;4.30;;;2.78;;
75218;SDS011;63801;49.414;19.474;2023-07-29T05:50:14;7.95;;;3.15;;
75218;SDS011;63801;49.414;19.474;2023-07-29T05:52:14;6.75;;;2.90;;
75218;SDS011;63801;49.414;19.474;2023-07-29T05:54:17;7.65;;;3.17;;
75218;SDS011;63801;49.414;19.474;2023-07-29T05:56:18;5.70;;;3.20;;
75218;SDS011;63801;49.414;19.474;2023-07-29T05:58:18;4.47;;;3.28;;
75218;SDS011;63801;49.414;19.474;2023-07-29T06:00:18;8.93;;;3.80;;
75218;SDS011;63801;49.414;19.474;2023-07-29T06:02:19;5.40;;;3.42;;
75218;SDS011;63801;49.414;19.474;2023-07-29T06:04:19;5.40;;;3.47;;
75218;SDS011;63801;49.414;19.474;2023-07-29T06:06:19;7.68;;;3.40;;
75218;SDS011;63801;49.414;19.474;2023-07-29T06:08:20;5.65;;;3.55;;
75218;SDS011;63801;49.414;19.474;2023-07-29T06:10:20;5.07;;;3.28;;
75218;SDS011;63801;49.414;19.474;2023-07-29T06:12:22;4.80;;;3.30;;
75218;SDS011;63801;49.414;19.474;2023-07-29T06:14:22;5.88;;;3.35;;
75218;SDS011;63801;49.414;19.474;2023-07-29T06:16:22;10.93;;;3.38;;
75218;SDS011;63801;49.414;19.474;2023-07-29T06:18:23;6.32;;;3.53;;
75218;SDS011;63801;49.414;19.474;2023-07-29T06:20:24;7.60;;;3.80;;
75218;SDS011;63801;49.414;19.474;2023-07-29T06:22:24;6.15;;;3.33;;
75218;SDS011;63801;49.414;19.474;2023-07-29T06:24:25;5.47;;;3.20;;
75218;SDS011;63801;49.414;19.474;2023-07-29T06:26:25;8.40;;;3.08;;
75218;SDS011;63801;49.414;19.474;2023-07-29T06:28:29;6.25;;;3.22;;
75218;SDS011;63801;49.414;19.474;2023-07-29T06:30:29;6.85;;;3.13;;
75218;SDS011;63801;49.414;19.474;2023-07-29T06:32:29;7.32;;;2.80;;
75218;SDS011;63801;49.414;19.474;2023-07-29T06:34:30;4.28;;;2.80;;
75218;SDS011;63801;49.414;19.474;2023-07-29T06:36:30;4.68;;;2.50;;
75218;SDS011;63801;49.414;19.474;2023-07-29T06:38:30;4.50;;;2.75;;
75218;SDS011;63801;49.414;19.474;2023-07-29T06:40:31;4.55;;;2.50;;
75218;SDS011;63801;49.414;19.474;2023-07-29T06:42:31;4.38;;;2.38;;
75218;SDS011;63801;49.414;19.474;2023-07-29T06:44:32;3.80;;;2.65;;
75218;SDS011;63801;49.414;19.474;2023-07-29T06:46:32;4.03;;;2.40;;
75218;SDS011;63801;49.414;19.474;2023-07-29T06:48:33;5.60;;;2.40;;
75218;SDS011;63801;49.414;19.474;2023-07-29T06:50:33;3.85;;;2.15;;
75218;SDS011;63801;49.414;19.474;2023-07-29T06:52:33;4.03;;;2.45;;
75218;SDS011;63801;49.414;19.474;2023-07-29T06:54:34;7.65;;;2.60;;
75218;SDS011;63801;49.414;19.474;2023-07-29T06:56:34;3.17;;;2.05;;
75218;SDS011;63801;49.414;19.474;2023-07-29T06:58:34;7.88;;;2.00;;
75218;SDS011;63801;49.414;19.474;2023-07-29T07:00:35;3.17;;;2.08;;
75218;SDS011;63801;49.414;19.474;2023-07-29T07:02:35;2.85;;;2.15;;
75218;SDS011;63801;49.414;19.474;2023-07-29T07:04:35;2.40;;;2.00;;
75218;SDS011;63801;49.414;19.474;2023-07-29T07:06:36;3.33;;;2.10;;
75218;SDS011;63801;49.414;19.474;2023-07-29T07:08:36;2.97;;;2.00;;
75218;SDS011;63801;49.414;19.474;2023-07-29T07:10:36;3.33;;;1.85;;
75218;SDS011;63801;49.414;19.474;2023-07-29T07:12:37;2.90;;;1.92;;
75218;SDS011;63801;49.414;19.474;2023-07-29T07:14:37;3.67;;;2.03;;
75218;SDS011;63801;49.414;19.474;2023-07-29T07:16:38;3.35;;;2.33;;
75218;SDS011;63801;49.414;19.474;2023-07-29T07:18:42;5.15;;;2.75;;
75218;SDS011;63801;49.414;19.474;2023-07-29T07:20:42;4.13;;;2.25;;
75218;SDS011;63801;49.414;19.474;2023-07-29T07:22:43;7.60;;;3.38;;
75218;SDS011;63801;49.414;19.474;2023-07-29T07:24:44;9.30;;;6.25;;
75218;SDS011;63801;49.414;19.474;2023-07-29T07:26:44;7.20;;;4.60;;
75218;SDS011;63801;49.414;19.474;2023-07-29T07:28:44;4.85;;;2.63;;
75218;SDS011;63801;49.414;19.474;2023-07-29T07:30:45;3.50;;;2.28;;
75218;SDS011;63801;49.414;19.474;2023-07-29T07:32:45;4.20;;;1.88;;
75218;SDS011;63801;49.414;19.474;2023-07-29T07:34:45;3.70;;;2.20;;
75218;SDS011;63801;49.414;19.474;2023-07-29T07:36:46;2.42;;;1.92;;
75218;SDS011;63801;49.414;19.474;2023-07-29T07:38:46;5.47;;;2.20;;
75218;SDS011;63801;49.414;19.474;2023-07-29T07:40:55;3.53;;;2.10;;
75218;SDS011;63801;49.414;19.474;2023-07-29T07:42:56;2.92;;;2.13;;
75218;SDS011;63801;49.414;19.474;2023-07-29T07:44:57;3.30;;;2.25;;
75218;SDS011;63801;49.414;19.474;2023-07-29T07:46:57;5.13;;;2.45;;
75218;SDS011;63801;49.414;19.474;2023-07-29T07:48:58;4.43;;;2.22;;
75218;SDS011;63801;49.414;19.474;2023-07-29T07:50:58;4.53;;;2.10;;
75218;SDS011;63801;49.414;19.474;2023-07-29T07:52:58;8.55;;;2.08;;
75218;SDS011;63801;49.414;19.474;2023-07-29T07:54:58;4.50;;;2.70;;
75218;SDS011;63801;49.414;19.474;2023-07-29T07:56:59;3.67;;;2.08;;
75218;SDS011;63801;49.414;19.474;2023-07-29T07:58:59;3.42;;;1.90;;
75218;SDS011;63801;49.414;19.474;2023-07-29T08:01:05;2.95;;;1.90;;
75218;SDS011;63801;49.414;19.474;2023-07-29T08:03:07;4.43;;;2.30;;
75218;SDS011;63801;49.414;19.474;2023-07-29T08:05:07;2.85;;;2.00;;
75218;SDS011;63801;49.414;19.474;2023-07-29T08:07:08;5.00;;;2.22;;
75218;SDS011;63801;49.414;19.474;2023-07-29T08:09:08;4.15;;;2.45;;
75218;SDS011;63801;49.414;19.474;2023-07-29T08:11:09;3.35;;;2.35;;
75218;SDS011;63801;49.414;19.474;2023-07-29T08:13:09;3.88;;;2.28;;
75218;SDS011;63801;49.414;19.474;2023-07-29T08:15:09;7.95;;;2.80;;
75218;SDS011;63801;49.414;19.474;2023-07-29T08:17:10;3.97;;;2.35;;
75218;SDS011;63801;49.414;19.474;2023-07-29T08:19:10;3.47;;;2.45;;
75218;SDS011;63801;49.414;19.474;2023-07-29T08:21:10;4.88;;;2.33;;
75218;SDS011;63801;49.414;19.474;2023-07-29T08:23:11;5.25;;;2.58;;
75218;SDS011;63801;49.414;19.474;2023-07-29T08:25:11;4.38;;;2.65;;
75218;SDS011;63801;49.414;19.474;2023-07-29T08:27:11;4.88;;;2.58;;
75218;SDS011;63801;49.414;19.474;2023-07-29T08:29:11;3.75;;;2.55;;
75218;SDS011;63801;49.414;19.474;2023-07-29T08:31:12;4.68;;;2.60;;
75218;SDS011;63801;49.414;19.474;2023-07-29T08:33:12;5.28;;;2.70;;
75218;SDS011;63801;49.414;19.474;2023-07-29T08:35:13;4.25;;;2.85;;
75218;SDS011;63801;49.414;19.474;2023-07-29T08:37:13;4.45;;;3.00;;
75218;SDS011;63801;49.414;19.474;2023-07-29T08:39:14;7.90;;;2.55;;
75218;SDS011;63801;49.414;19.474;2023-07-29T08:41:16;4.85;;;2.80;;
75218;SDS011;63801;49.414;19.474;2023-07-29T08:43:22;3.55;;;2.30;;
75218;SDS011;63801;49.414;19.474;2023-07-29T08:45:28;4.40;;;2.72;;
75218;SDS011;63801;49.414;19.474;2023-07-29T08:47:32;4.13;;;2.65;;
75218;SDS011;63801;49.414;19.474;2023-07-29T08:49:32;3.40;;;2.35;;
75218;SDS011;63801;49.414;19.474;2023-07-29T08:51:33;6.00;;;2.90;;
75218;SDS011;63801;49.414;19.474;2023-07-29T08:53:35;4.35;;;2.55;;
75218;SDS011;63801;49.414;19.474;2023-07-29T08:55:35;6.72;;;2.47;;
75218;SDS011;63801;49.414;19.474;2023-07-29T08:57:37;3.90;;;2.45;;
75218;SDS011;63801;49.414;19.474;2023-07-29T08:59:37;4.90;;;2.40;;
75218;SDS011;63801;49.414;19.474;2023-07-29T09:01:39;3.80;;;2.55;;
75218;SDS011;63801;49.414;19.474;2023-07-29T09:03:40;5.85;;;2.83;;
75218;SDS011;63801;49.414;19.474;2023-07-29T09:05:41;3.53;;;2.60;;
75218;SDS011;63801;49.414;19.474;2023-07-29T09:07:42;4.85;;;2.80;;
75218;SDS011;63801;49.414;19.474;2023-07-29T09:09:45;4.90;;;2.63;;
75218;SDS011;63801;49.414;19.474;2023-07-29T09:11:45;5.05;;;2.45;;
75218;SDS011;63801;49.414;19.474;2023-07-29T09:13:45;4.82;;;2.40;;
75218;SDS011;63801;49.414;19.474;2023-07-29T09:15:46;3.58;;;2.35;;
75218;SDS011;63801;49.414;19.474;2023-07-29T09:17:46;3.80;;;2.45;;
75218;SDS011;63801;49.414;19.474;2023-07-29T09:19:47;7.68;;;2.50;;
75218;SDS011;63801;49.414;19.474;2023-07-29T09:21:54;4.68;;;2.30;;
75218;SDS011;63801;49.414;19.474;2023-07-29T09:23:55;4.40;;;2.33;;
75218;SDS011;63801;49.414;19.474;2023-07-29T09:26:02;5.13;;;2.47;;
75218;SDS011;63801;49.414;19.474;2023-07-29T09:28:09;3.97;;;2.17;;
75218;SDS011;63801;49.414;19.474;2023-07-29T09:30:16;4.13;;;2.15;;
75218;SDS011;63801;49.414;19.474;2023-07-29T09:32:18;3.33;;;2.58;;
75218;SDS011;63801;49.414;19.474;2023-07-29T09:34:20;2.92;;;1.90;;
75218;SDS011;63801;49.414;19.474;2023-07-29T09:36:21;3.95;;;1.75;;
75218;SDS011;63801;49.414;19.474;2023-07-29T09:38:26;7.18;;;3.13;;
75218;SDS011;63801;49.414;19.474;2023-07-29T09:40:27;5.32;;;2.15;;
75218;SDS011;63801;49.414;19.474;2023-07-29T09:42:27;7.60;;;3.40;;
75218;SDS011;63801;49.414;19.474;2023-07-29T09:44:28;7.40;;;3.40;;
75218;SDS011;63801;49.414;19.474;2023-07-29T09:46:36;4.25;;;2.63;;
75218;SDS011;63801;49.414;19.474;2023-07-29T09:48:37;4.38;;;2.78;;
75218;SDS011;63801;49.414;19.474;2023-07-29T09:50:38;7.97;;;4.03;;
75218;SDS011;63801;49.414;19.474;2023-07-29T09:52:39;5.13;;;3.00;;
75218;SDS011;63801;49.414;19.474;2023-07-29T09:54:39;3.75;;;2.17;;
75218;SDS011;63801;49.414;19.474;2023-07-29T09:56:41;6.95;;;3.92;;
75218;SDS011;63801;49.414;19.474;2023-07-29T09:58:44;5.60;;;3.42;;
75218;SDS011;63801;49.414;19.474;2023-07-29T10:00:45;7.95;;;3.28;;
75218;SDS011;63801;49.414;19.474;2023-07-29T10:02:47;6.15;;;2.28;;
75218;SDS011;63801;49.414;19.474;2023-07-29T10:04:48;8.50;;;2.13;;
75218;SDS011;63801;49.414;19.474;2023-07-29T10:06:49;5.30;;;2.55;;
75218;SDS011;63801;49.414;19.474;2023-07-29T10:08:50;6.85;;;2.50;;
75218;SDS011;63801;49.414;19.474;2023-07-29T10:10:52;7.78;;;3.70;;
75218;SDS011;63801;49.414;19.474;2023-07-29T10:12:53;7.07;;;3.10;;
75218;SDS011;63801;49.414;19.474;2023-07-29T10:14:54;6.32;;;3.40;;
75218;SDS011;63801;49.414;19.474;2023-07-29T10:16:58;6.13;;;3.30;;
75218;SDS011;63801;49.414;19.474;2023-07-29T10:19:00;4.77;;;2.20;;
75218;SDS011;63801;49.414;19.474;2023-07-29T10:21:01;3.80;;;2.20;;
75218;SDS011;63801;49.414;19.474;2023-07-29T10:23:02;3.22;;;2.35;;
75218;SDS011;63801;49.414;19.474;2023-07-29T10:25:08;8.15;;;5.03;;
75218;SDS011;63801;49.414;19.474;2023-07-29T10:27:21;3.83;;;2.38;;
75218;SDS011;63801;49.414;19.474;2023-07-29T10:29:24;9.68;;;6.13;;
75218;SDS011;63801;49.414;19.474;2023-07-29T10:31:30;12.82;;;9.52;;
75218;SDS011;63801;49.414;19.474;2023-07-29T10:33:32;14.23;;;8.10;;
75218;SDS011;63801;49.414;19.474;2023-07-29T10:35:34;12.85;;;6.45;;
75218;SDS011;63801;49.414;19.474;2023-07-29T10:37:35;11.23;;;6.68;;
75218;SDS011;63801;49.414;19.474;2023-07-29T10:39:40;12.32;;;7.43;;
75218;SDS011;63801;49.414;19.474;2023-07-29T10:42:00;15.15;;;9.00;;
75218;SDS011;63801;49.414;19.474;2023-07-29T10:44:02;6.88;;;3.80;;
75218;SDS011;63801;49.414;19.474;2023-07-29T10:46:18;11.25;;;6.43;;
75218;SDS011;63801;49.414;19.474;2023-07-29T10:50:37;8.90;;;5.22;;
75218;SDS011;63801;49.414;19.474;2023-07-29T10:52:40;7.53;;;4.18;;
75218;SDS011;63801;49.414;19.474;2023-07-29T10:54:44;15.30;;;8.65;;
75218;SDS011;63801;49.414;19.474;2023-07-29T10:56:47;13.48;;;7.88;;
75218;SDS011;63801;49.414;19.474;2023-07-29T10:58:48;6.03;;;3.40;;
75218;SDS011;63801;49.414;19.474;2023-07-29T11:00:48;5.93;;;3.78;;
75218;SDS011;63801;49.414;19.474;2023-07-29T11:03:02;8.88;;;5.57;;
75218;SDS011;63801;49.414;19.474;2023-07-29T11:05:05;5.13;;;3.38;;
75218;SDS011;63801;49.414;19.474;2023-07-29T11:09:38;5.95;;;3.90;;
75218;SDS011;63801;49.414;19.474;2023-07-29T11:13:41;6.63;;;3.57;;
75218;SDS011;63801;49.414;19.474;2023-07-29T11:15:42;6.53;;;3.72;;
75218;SDS011;63801;49.414;19.474;2023-07-29T11:17:43;6.70;;;3.42;;
75218;SDS011;63801;49.414;19.474;2023-07-29T11:19:44;4.03;;;2.55;;
75218;SDS011;63801;49.414;19.474;2023-07-29T11:21:46;4.27;;;2.97;;
75218;SDS011;63801;49.414;19.474;2023-07-29T11:23:48;3.40;;;2.03;;
75218;SDS011;63801;49.414;19.474;2023-07-29T11:25:48;4.05;;;2.92;;
75218;SDS011;63801;49.414;19.474;2023-07-29T11:27:55;4.93;;;2.70;;
75218;SDS011;63801;49.414;19.474;2023-07-29T11:30:00;4.28;;;2.60;;
75218;SDS011;63801;49.414;19.474;2023-07-29T11:32:05;5.72;;;3.58;;
75218;SDS011;63801;49.414;19.474;2023-07-29T11:34:06;4.72;;;2.30;;
75218;SDS011;63801;49.414;19.474;2023-07-29T11:36:16;4.45;;;2.50;;
75218;SDS011;63801;49.414;19.474;2023-07-29T11:38:18;4.25;;;2.78;;
75218;SDS011;63801;49.414;19.474;2023-07-29T11:40:20;3.72;;;2.80;;
75218;SDS011;63801;49.414;19.474;2023-07-29T11:42:22;3.15;;;2.20;;
75218;SDS011;63801;49.414;19.474;2023-07-29T11:44:22;5.13;;;2.72;;
75218;SDS011;63801;49.414;19.474;2023-07-29T11:46:22;4.85;;;2.55;;
75218;SDS011;63801;49.414;19.474;2023-07-29T11:48:30;3.58;;;2.30;;
75218;SDS011;63801;49.414;19.474;2023-07-29T11:50:32;4.53;;;2.05;;
75218;SDS011;63801;49.414;19.474;2023-07-29T11:52:33;3.38;;;1.88;;
75218;SDS011;63801;49.414;19.474;2023-07-29T11:54:37;2.17;;;1.77;;
75218;SDS011;63801;49.414;19.474;2023-07-29T11:56:38;3.08;;;2.08;;
75218;SDS011;63801;49.414;19.474;2023-07-29T11:58:38;2.05;;;1.80;;
75218;SDS011;63801;49.414;19.474;2023-07-29T12:00:39;3.42;;;1.90;;
75218;SDS011;63801;49.414;19.474;2023-07-29T12:02:40;3.03;;;1.92;;
75218;SDS011;63801;49.414;19.474;2023-07-29T12:04:44;4.65;;;2.10;;
75218;SDS011;63801;49.414;19.474;2023-07-29T12:06:47;3.20;;;2.00;;
75218;SDS011;63801;49.414;19.474;2023-07-29T12:08:47;2.70;;;1.83;;